Time;durP1;ratioP1;P1;durP2;ratioP2;P2;SDS_P1;SDS_P2;PMS_P1;PMS_P2;Temp;Humidity;BMP_temperature;BMP_pressure;BME280_temperature;BME280_humidity;BME280_pressure;Samples;Min_cycle;Max_cycle;Signal;HPM_P1;HPM_P2
2022/11/01 00:01:01;;;;;;;15.90;8.23;;;14.70;99.90;;;;;;5049068;28;20214;-90
2022/11/01 00:03:27;;;;;;;16.23;7.23;;;14.70;99.90;;;;;;5016543;28;20218;-90
2022/11/01 00:05:53;;;;;;;10.23;5.43;;;14.70;99.90;;;;;;5016181;28;20229;-90
2022/11/01 00:08:18;;;;;;;8.90;6.67;;;14.70;99.90;;;;;;5016672;28;20193;-91
2022/11/01 00:10:44;;;;;;;10.97;6.23;;;14.70;99.90;;;;;;5015784;28;20212;-90
2022/11/01 00:13:10;;;;;;;10.30;6.07;;;14.70;99.90;;;;;;5007178;28;20218;-91
2022/11/01 00:15:35;;;;;;;9.70;6.37;;;14.60;99.90;;;;;;5014694;28;20211;-92
2022/11/01 00:18:01;;;;;;;8.67;4.90;;;14.60;99.90;;;;;;5015554;28;20232;-91
2022/11/01 00:20:27;;;;;;;8.73;5.10;;;14.70;99.90;;;;;;5033023;28;20197;-92
2022/11/01 00:22:52;;;;;;;9.87;6.50;;;14.70;99.90;;;;;;5015891;28;20222;-90
2022/11/01 00:25:18;;;;;;;5.90;4.63;;;14.70;99.90;;;;;;5015743;28;20214;-92
2022/11/01 00:27:44;;;;;;;11.40;7.17;;;14.70;99.90;;;;;;5016041;28;20248;-92
2022/11/01 00:30:10;;;;;;;8.63;5.33;;;14.70;99.90;;;;;;5016208;28;20214;-91
2022/11/01 00:32:36;;;;;;;10.80;6.37;;;14.70;99.90;;;;;;5015132;28;21464;-91
2022/11/01 00:35:02;;;;;;;12.53;5.90;;;14.80;99.90;;;;;;5032664;28;20304;-90
2022/11/01 00:37:28;;;;;;;9.90;4.80;;;14.80;99.90;;;;;;5032659;28;20222;-92
2022/11/01 00:39:54;;;;;;;4.63;4.10;;;14.80;99.90;;;;;;5048002;28;20750;-92
2022/11/01 00:42:20;;;;;;;6.73;4.63;;;14.70;99.90;;;;;;5030976;28;20221;-92
2022/11/01 00:44:45;;;;;;;8.47;5.53;;;14.70;99.90;;;;;;5031959;28;20201;-92
2022/11/01 00:47:11;;;;;;;12.00;5.63;;;14.70;99.90;;;;;;5016329;28;20186;-91
2022/11/01 00:49:37;;;;;;;7.47;5.80;;;14.70;99.90;;;;;;5048072;28;20251;-92
2022/11/01 00:52:03;;;;;;;10.63;5.10;;;14.70;99.90;;;;;;5015751;28;20226;-92
2022/11/01 00:54:28;;;;;;;14.17;6.10;;;14.80;99.90;;;;;;5014457;28;20226;-92
2022/11/01 00:56:54;;;;;;;12.77;6.27;;;14.80;99.90;;;;;;5015359;28;20214;-92
2022/11/01 00:59:20;;;;;;;6.03;4.13;;;14.90;99.90;;;;;;5033465;28;20178;-92
2022/11/01 01:01:45;;;;;;;7.77;5.10;;;14.90;99.90;;;;;;5016109;28;20242;-91
2022/11/01 01:04:12;;;;;;;7.40;5.30;;;14.90;99.90;;;;;;5032501;28;20244;-91
2022/11/01 01:06:37;;;;;;;7.93;4.87;;;14.90;99.90;;;;;;5030871;28;20217;-91
2022/11/01 01:09:04;;;;;;;7.67;3.93;;;15.00;99.90;;;;;;5032748;28;20205;-92
2022/11/01 01:11:29;;;;;;;10.73;4.97;;;15.00;99.90;;;;;;5016777;28;20522;-93
2022/11/01 01:13:55;;;;;;;16.10;5.03;;;14.90;99.90;;;;;;5015029;28;20228;-92
2022/11/01 01:16:21;;;;;;;7.43;4.43;;;14.90;99.90;;;;;;5015475;28;20299;-92
2022/11/01 01:18:47;;;;;;;8.87;4.97;;;14.80;99.90;;;;;;5030496;28;20670;-94
2022/11/01 01:21:14;;;;;;;9.63;4.27;;;14.80;99.90;;;;;;5031321;28;20236;-92
2022/11/01 01:23:40;;;;;;;10.20;4.77;;;14.70;99.90;;;;;;5014431;28;20549;-92
2022/11/01 01:26:07;;;;;;;7.37;3.73;;;14.70;99.90;;;;;;5032268;28;20220;-93
2022/11/01 01:28:33;;;;;;;13.07;5.27;;;14.70;99.90;;;;;;5064198;28;20246;-93
2022/11/01 01:30:59;;;;;;;9.23;4.23;;;14.80;99.90;;;;;;5048037;28;20225;-93
2022/11/01 01:33:25;;;;;;;4.37;3.50;;;14.70;99.90;;;;;;5015259;28;20625;-93
2022/11/01 01:35:50;;;;;;;8.70;4.33;;;14.80;99.90;;;;;;5031428;28;20264;-93
2022/11/01 01:38:16;;;;;;;5.10;3.50;;;14.80;99.90;;;;;;5016446;28;20182;-92
2022/11/01 01:40:42;;;;;;;5.43;4.10;;;14.70;99.90;;;;;;5031571;28;20210;-93
2022/11/01 01:43:11;;;;;;;8.53;3.70;;;14.80;99.90;;;;;;5014810;28;20229;-94
2022/11/01 01:45:39;;;;;;;7.73;5.30;;;14.80;99.90;;;;;;5031411;28;20318;-93
2022/11/01 01:48:14;;;;;;;12.60;4.33;;;14.80;99.90;;;;;;5029060;28;20304;-92
2022/11/01 01:50:54;;;;;;;5.70;4.10;;;14.80;99.90;;;;;;5048304;28;20268;-92
2022/11/01 01:53:32;;;;;;;7.80;4.33;;;14.80;99.90;;;;;;5044079;28;20227;-91
2022/11/01 01:56:06;;;;;;;4.17;3.67;;;14.80;99.90;;;;;;5031045;28;20633;-92
2022/11/01 01:58:36;;;;;;;9.47;5.07;;;14.80;99.90;;;;;;5048700;28;20586;-93
2022/11/01 02:01:01;;;;;;;8.33;4.60;;;14.80;99.90;;;;;;5063688;28;20218;-92
2022/11/01 02:03:31;;;;;;;7.83;3.63;;;14.80;99.90;;;;;;5046790;28;20221;-92
2022/11/01 02:06:18;;;;;;;8.53;4.50;;;14.80;99.90;;;;;;5050265;28;20218;-92
2022/11/01 02:08:50;;;;;;;8.77;4.43;;;14.80;99.90;;;;;;5050283;28;20225;-91
2022/11/01 02:11:17;;;;;;;7.70;4.33;;;14.80;99.90;;;;;;5042958;28;20194;-92
2022/11/01 02:13:43;;;;;;;6.57;4.37;;;14.80;99.90;;;;;;5051122;28;20736;-92
2022/11/01 02:16:31;;;;;;;4.13;2.77;;;14.80;99.90;;;;;;5034828;28;20296;-91
2022/11/01 02:18:57;;;;;;;10.30;5.47;;;14.80;99.90;;;;;;5047215;28;20214;-92
2022/11/01 02:21:44;;;;;;;10.37;4.00;;;14.90;99.90;;;;;;5051238;28;20730;-92
2022/11/01 02:24:36;;;;;;;4.43;3.60;;;15.00;99.90;;;;;;5051312;28;20264;-93
2022/11/01 02:27:11;;;;;;;8.07;3.50;;;15.00;99.90;;;;;;5040019;28;20268;-91
2022/11/01 02:29:39;;;;;;;14.73;4.50;;;15.10;99.90;;;;;;5066699;28;20740;-92
2022/11/01 02:32:19;;;;;;;6.83;5.17;;;15.10;99.90;;;;;;5051844;28;20189;-92
2022/11/01 02:34:56;;;;;;;4.33;3.40;;;15.10;99.90;;;;;;5040359;28;20237;-91
2022/11/01 02:37:48;;;;;;;9.83;4.07;;;15.00;99.90;;;;;;5039254;28;20260;-92
2022/11/01 02:40:23;;;;;;;7.10;3.90;;;15.00;99.90;;;;;;5050820;28;20214;-92
2022/11/01 02:42:54;;;;;;;10.43;4.63;;;14.90;99.90;;;;;;5050958;28;20213;-92
2022/11/01 02:45:36;;;;;;;6.30;3.60;;;14.90;99.90;;;;;;5067137;28;20264;-91
2022/11/01 02:48:03;;;;;;;7.97;4.13;;;15.00;99.90;;;;;;5051007;28;20209;-92
2022/11/01 02:50:42;;;;;;;5.33;3.83;;;15.00;99.90;;;;;;5051458;28;20193;-91
2022/11/01 02:53:09;;;;;;;6.17;4.13;;;15.00;99.90;;;;;;5050933;28;20206;-90
2022/11/01 02:55:35;;;;;;;6.80;4.33;;;15.00;99.90;;;;;;5033148;28;20614;-92
2022/11/01 02:58:02;;;;;;;6.87;3.67;;;15.10;99.90;;;;;;5034280;28;20209;-92
2022/11/01 03:00:34;;;;;;;10.03;3.80;;;15.20;99.90;;;;;;5050666;28;20686;-92
2022/11/01 03:03:36;;;;;;;5.77;3.80;;;15.20;99.90;;;;;;5050762;28;20202;-92
2022/11/01 03:06:04;;;;;;;7.00;3.13;;;15.30;99.90;;;;;;4973035;28;20231;-91
2022/11/01 03:08:32;;;;;;;8.13;3.17;;;15.30;99.90;;;;;;5036169;28;20193;-91
2022/11/01 03:11:04;;;;;;;4.67;2.33;;;15.30;99.90;;;;;;5050912;28;20214;-92
2022/11/01 03:13:48;;;;;;;3.80;3.40;;;15.30;99.90;;;;;;5049694;28;20225;-91
2022/11/01 03:16:29;;;;;;;4.70;2.80;;;15.30;99.90;;;;;;5048507;28;20214;-92
2022/11/01 03:19:32;;;;;;;10.63;4.10;;;15.30;99.90;;;;;;5062460;28;20226;-91
2022/11/01 03:22:13;;;;;;;6.60;3.70;;;15.30;99.90;;;;;;5058223;28;20670;-91
2022/11/01 03:24:56;;;;;;;4.50;3.57;;;15.20;99.90;;;;;;5043957;28;20222;-92
2022/11/01 03:27:33;;;;;;;6.67;3.67;;;15.20;99.90;;;;;;5049690;28;20249;-91
2022/11/01 03:30:12;;;;;;;5.93;3.63;;;15.20;99.90;;;;;;5048374;28;20304;-92
2022/11/01 03:32:45;;;;;;;3.93;3.40;;;15.30;99.90;;;;;;5047684;28;20174;-91
2022/11/01 03:35:16;;;;;;;5.67;2.83;;;15.30;99.90;;;;;;5064596;28;20666;-91
2022/11/01 03:37:44;;;;;;;7.83;3.90;;;15.30;99.90;;;;;;5065060;28;20217;-91
2022/11/01 03:40:13;;;;;;;6.57;3.17;;;15.40;99.90;;;;;;5050104;28;20714;-91
2022/11/01 03:42:42;;;;;;;7.47;2.50;;;15.40;99.90;;;;;;5049951;28;20579;-91
2022/11/01 03:45:11;;;;;;;6.37;3.10;;;15.50;99.90;;;;;;5049716;28;20557;-92
2022/11/01 03:47:37;;;;;;;4.43;3.77;;;15.40;99.90;;;;;;5049569;28;20182;-91
2022/11/01 03:50:26;;;;;;;2.67;2.23;;;15.50;99.90;;;;;;5033861;28;20213;-92
2022/11/01 03:52:52;;;;;;;5.40;2.60;;;15.50;99.90;;;;;;5049621;28;20704;-92
2022/11/01 03:55:20;;;;;;;3.33;2.83;;;15.60;99.90;;;;;;5032897;28;20214;-91
2022/11/01 03:57:59;;;;;;;13.00;4.03;;;15.60;99.90;;;;;;5033042;28;20214;-91
2022/11/01 04:00:27;;;;;;;7.50;3.87;;;15.60;99.90;;;;;;5032129;28;20259;-91
2022/11/01 04:02:53;;;;;;;10.80;3.73;;;15.70;99.90;;;;;;5048466;28;20301;-91
2022/11/01 04:05:21;;;;;;;5.53;2.63;;;15.60;99.90;;;;;;5043011;28;20188;-92
2022/11/01 04:07:47;;;;;;;5.93;3.27;;;15.60;99.90;;;;;;5065311;28;20209;-91
2022/11/01 04:10:14;;;;;;;3.47;2.90;;;15.70;99.90;;;;;;5032196;28;20225;-91
2022/11/01 04:12:43;;;;;;;4.77;2.87;;;15.70;99.90;;;;;;5015911;28;20221;-93
2022/11/01 04:21:15;;;;;;;4.13;2.73;;;15.80;99.90;;;;;;5049902;28;20957;-92
2022/11/01 04:23:42;;;;;;;9.43;3.10;;;15.80;99.90;;;;;;5048451;28;20236;-90
2022/11/01 04:26:12;;;;;;;5.17;3.43;;;15.80;99.90;;;;;;5049578;28;20185;-91
2022/11/01 04:28:38;;;;;;;7.87;3.13;;;15.80;99.90;;;;;;5063984;28;20292;-91
2022/11/01 04:31:04;;;;;;;4.90;3.13;;;15.80;99.90;;;;;;5015505;28;20242;-91
2022/11/01 04:33:30;;;;;;;9.07;2.67;;;15.80;99.90;;;;;;5032479;28;20248;-91
2022/11/01 04:35:56;;;;;;;5.43;2.63;;;15.90;99.90;;;;;;5048690;28;20210;-92
2022/11/01 04:38:22;;;;;;;4.63;2.87;;;16.00;99.90;;;;;;5032311;28;20182;-91
2022/11/01 04:40:48;;;;;;;5.53;2.70;;;16.00;99.90;;;;;;5014889;28;20264;-91
2022/11/01 04:43:14;;;;;;;8.70;2.60;;;16.00;99.90;;;;;;5047847;28;20768;-92
2022/11/01 04:45:40;;;;;;;3.90;3.37;;;16.00;99.90;;;;;;5004782;28;20236;-92
2022/11/01 04:48:15;;;;;;;2.57;2.00;;;15.90;99.90;;;;;;5032174;28;20575;-92
2022/11/01 04:50:42;;;;;;;3.57;2.47;;;15.90;99.90;;;;;;5031751;28;20182;-93
2022/11/01 04:53:09;;;;;;;4.63;2.37;;;15.90;99.90;;;;;;5049480;28;20669;-91
2022/11/01 04:55:35;;;;;;;7.43;2.67;;;16.00;99.90;;;;;;5031152;28;20565;-93
2022/11/01 04:58:05;;;;;;;4.10;2.87;;;16.00;99.90;;;;;;5049109;28;20305;-91
2022/11/01 05:00:32;;;;;;;4.13;2.43;;;16.00;99.90;;;;;;5048726;28;20581;-92
2022/11/01 05:03:09;;;;;;;4.80;2.77;;;16.00;99.90;;;;;;5040533;28;20210;-93
2022/11/01 05:05:38;;;;;;;2.97;2.17;;;16.00;99.90;;;;;;5023862;28;20181;-92
2022/11/01 05:08:09;;;;;;;3.97;2.20;;;16.00;99.90;;;;;;5027377;28;20198;-94
2022/11/01 05:10:38;;;;;;;1.30;1.10;;;16.00;99.90;;;;;;5048468;28;20788;-93
2022/11/01 05:13:07;;;;;;;3.53;1.47;;;15.90;99.90;;;;;;5048981;28;20222;-93
2022/11/01 05:15:34;;;;;;;2.77;1.47;;;15.90;99.90;;;;;;5031677;28;20240;-93
2022/11/01 05:18:05;;;;;;;2.03;1.30;;;15.80;99.90;;;;;;5031819;28;20293;-91
2022/11/01 05:20:36;;;;;;;3.87;1.17;;;15.70;99.90;;;;;;5031348;28;20635;-92
2022/11/01 05:23:04;;;;;;;2.27;1.50;;;15.60;99.90;;;;;;5032612;28;20186;-91
2022/11/01 05:25:30;;;;;;;5.47;1.90;;;15.50;99.90;;;;;;5048107;28;20260;-92
2022/11/01 05:28:08;;;;;;;1.40;1.30;;;15.40;99.90;;;;;;5048873;28;20706;-93
2022/11/01 05:30:37;;;;;;;1.53;1.17;;;15.30;99.90;;;;;;5063202;28;20321;-93
2022/11/01 05:33:05;;;;;;;1.17;1.07;;;15.20;99.90;;;;;;5047301;28;20217;-92
2022/11/01 05:35:31;;;;;;;5.67;1.03;;;15.10;99.90;;;;;;5031991;28;20185;-93
2022/11/01 05:37:57;;;;;;;7.10;1.47;;;15.00;99.90;;;;;;5048054;28;20666;-92
2022/11/01 05:40:24;;;;;;;0.97;0.97;;;15.00;99.90;;;;;;5017923;28;20217;-93
2022/11/01 05:42:50;;;;;;;2.53;1.30;;;15.00;99.90;;;;;;5019304;28;20292;-92
2022/11/01 05:45:16;;;;;;;2.13;1.00;;;14.90;99.90;;;;;;5020317;28;20348;-93
2022/11/01 05:47:42;;;;;;;1.10;0.87;;;14.90;99.90;;;;;;5052894;28;20852;-93
2022/11/01 05:50:11;;;;;;;3.87;0.80;;;14.80;99.90;;;;;;5014083;28;20666;-90
2022/11/01 05:52:37;;;;;;;0.40;0.40;;;14.70;99.90;;;;;;5052776;28;20208;-92
2022/11/01 05:55:03;;;;;;;0.93;0.93;;;14.70;99.90;;;;;;5032986;28;20229;-90
2022/11/01 05:57:29;;;;;;;1.60;1.00;;;14.60;99.90;;;;;;5051866;28;20225;-91
2022/11/01 05:59:55;;;;;;;0.20;0.20;;;14.60;99.90;;;;;;5035493;28;20206;-93
2022/11/01 06:02:21;;;;;;;0.50;0.27;;;14.70;99.90;;;;;;5019754;28;20276;-90
2022/11/01 06:04:46;;;;;;;3.90;1.63;;;14.70;99.90;;;;;;5017960;28;20217;-90
2022/11/01 06:07:12;;;;;;;3.20;0.30;;;14.60;99.90;;;;;;5035412;28;20611;-91
2022/11/01 06:09:38;;;;;;;5.73;0.77;;;14.60;99.90;;;;;;5018480;28;20207;-91
2022/11/01 06:12:04;;;;;;;0.93;0.63;;;14.50;99.90;;;;;;5033297;28;20210;-91
2022/11/01 06:14:31;;;;;;;5.23;0.87;;;14.50;99.90;;;;;;5038509;28;20560;-93
2022/11/01 06:16:57;;;;;;;1.10;0.67;;;14.40;99.90;;;;;;5021218;28;20685;-92
2022/11/01 06:19:23;;;;;;;0.70;0.70;;;14.50;99.90;;;;;;5020196;28;20210;-92
2022/11/01 06:21:48;;;;;;;1.90;0.60;;;14.40;99.90;;;;;;5019981;28;20213;-91
2022/11/01 06:24:14;;;;;;;1.63;1.07;;;14.40;99.90;;;;;;5014878;28;20559;-91
2022/11/01 06:26:40;;;;;;;0.73;0.20;;;14.40;99.90;;;;;;5035017;28;20190;-91
2022/11/01 06:29:06;;;;;;;4.90;1.07;;;14.40;99.90;;;;;;5038877;28;20225;-91
2022/11/01 06:31:32;;;;;;;0.20;0.20;;;14.40;99.90;;;;;;5037503;28;20205;-91
2022/11/01 06:34:01;;;;;;;2.17;1.07;;;14.50;99.90;;;;;;5037495;28;20599;-89
2022/11/01 06:36:26;;;;;;;1.80;0.40;;;14.50;99.90;;;;;;5019564;28;20214;-91
2022/11/01 06:38:52;;;;;;;5.40;0.90;;;14.50;99.90;;;;;;5035603;28;20673;-91
2022/11/01 06:41:18;;;;;;;2.37;1.27;;;14.50;99.90;;;;;;5019420;28;20189;-90
2022/11/01 06:43:46;;;;;;;0.87;0.77;;;14.50;99.90;;;;;;5018411;28;20317;-92
2022/11/01 06:46:12;;;;;;;2.57;0.53;;;14.50;99.90;;;;;;5050126;28;20728;-91
2022/11/01 06:48:38;;;;;;;0.57;0.50;;;14.50;99.90;;;;;;5017304;28;20229;-90
2022/11/01 06:51:04;;;;;;;3.13;1.37;;;14.60;99.90;;;;;;5016567;28;20246;-92
2022/11/01 06:53:33;;;;;;;3.50;0.83;;;14.60;99.90;;;;;;5018090;28;20210;-89
2022/11/01 06:55:59;;;;;;;5.10;0.63;;;14.60;99.90;;;;;;5016821;28;20942;-89
2022/11/01 06:58:26;;;;;;;0.27;0.27;;;14.60;99.90;;;;;;5033298;28;20224;-90
2022/11/01 07:00:51;;;;;;;2.53;0.57;;;14.60;99.90;;;;;;5038622;28;20705;-89
2022/11/01 07:03:17;;;;;;;2.07;0.53;;;14.60;99.90;;;;;;5017065;28;20210;-89
2022/11/01 07:05:43;;;;;;;2.97;1.13;;;14.60;99.90;;;;;;5032135;28;20194;-89
2022/11/01 07:08:11;;;;;;;5.03;0.80;;;14.50;99.90;;;;;;5017718;28;20214;-88
2022/11/01 07:10:40;;;;;;;3.93;0.40;;;14.50;99.90;;;;;;5033501;28;20217;-90
2022/11/01 07:13:06;;;;;;;0.93;0.60;;;14.50;99.90;;;;;;5043812;28;20753;-92
2022/11/01 07:15:32;;;;;;;1.60;0.90;;;14.50;99.90;;;;;;5053572;28;20206;-91
2022/11/01 07:17:59;;;;;;;3.30;0.73;;;14.50;99.90;;;;;;5018850;28;20202;-93
2022/11/01 07:20:26;;;;;;;1.90;0.70;;;14.60;99.90;;;;;;5036808;28;20177;-90
2022/11/01 07:23:04;;;;;;;7.30;0.83;;;14.70;99.90;;;;;;5054263;28;20202;-89
2022/11/01 07:25:31;;;;;;;1.07;0.30;;;14.80;99.90;;;;;;5029125;28;20685;-92
2022/11/01 07:27:58;;;;;;;3.10;0.80;;;14.80;99.90;;;;;;5017216;28;20258;-92
2022/11/01 07:30:24;;;;;;;5.07;0.50;;;14.80;99.90;;;;;;5053212;28;20230;-90
2022/11/01 07:32:58;;;;;;;1.43;0.40;;;14.70;99.90;;;;;;5036017;28;20186;-90
2022/11/01 07:35:34;;;;;;;0.93;0.50;;;14.70;99.90;;;;;;5036639;28;20220;-91
2022/11/01 07:38:20;;;;;;;1.97;0.93;;;14.60;99.90;;;;;;5029742;28;20205;-92
2022/11/01 07:40:48;;;;;;;0.73;0.63;;;14.60;99.90;;;;;;5031586;28;20213;-92
2022/11/01 07:43:16;;;;;;;6.80;1.77;;;14.50;99.90;;;;;;5053169;28;20217;-92
2022/11/01 07:45:42;;;;;;;8.60;1.73;;;14.50;99.90;;;;;;5045830;28;20304;-92
2022/11/01 07:48:11;;;;;;;3.13;0.97;;;14.50;99.90;;;;;;5052801;28;20310;-92
2022/11/01 07:50:38;;;;;;;1.13;0.70;;;14.50;99.90;;;;;;5052568;28;20202;-92
2022/11/01 07:53:08;;;;;;;0.47;0.33;;;14.50;99.90;;;;;;5037086;28;20197;-92
2022/11/01 07:55:34;;;;;;;2.00;0.90;;;14.50;99.90;;;;;;5052433;28;20254;-92
2022/11/01 07:58:01;;;;;;;2.40;0.60;;;14.50;99.90;;;;;;5034710;28;20230;-90
2022/11/01 08:00:28;;;;;;;6.97;0.63;;;14.50;99.90;;;;;;5035900;28;20222;-90
2022/11/01 08:03:19;;;;;;;2.70;1.20;;;14.50;99.90;;;;;;5052578;28;20264;-90
2022/11/01 08:05:46;;;;;;;2.73;1.10;;;14.50;99.90;;;;;;5051506;28;20250;-91
2022/11/01 08:08:14;;;;;;;1.17;0.73;;;14.50;99.90;;;;;;5017686;28;20191;-91
2022/11/01 08:10:41;;;;;;;8.07;1.27;;;14.40;99.90;;;;;;5019353;28;20744;-92
2022/11/01 08:13:21;;;;;;;4.67;1.57;;;14.30;99.90;;;;;;5052532;28;20214;-92
2022/11/01 08:15:49;;;;;;;10.87;1.00;;;14.40;99.90;;;;;;5046001;28;20225;-91
2022/11/01 08:18:17;;;;;;;1.80;0.73;;;14.40;99.90;;;;;;5052574;28;20222;-91
2022/11/01 08:20:43;;;;;;;3.77;2.53;;;14.40;99.90;;;;;;5038743;28;20206;-93
2022/11/01 08:23:10;;;;;;;1.03;0.40;;;14.50;99.90;;;;;;5037434;28;20189;-91
2022/11/01 08:25:36;;;;;;;1.87;1.10;;;14.60;99.90;;;;;;5053377;28;20214;-93
2022/11/01 08:28:05;;;;;;;4.07;0.93;;;14.60;99.90;;;;;;5057318;28;20241;-94
2022/11/01 08:30:31;;;;;;;1.83;0.80;;;14.70;99.90;;;;;;5052930;28;20186;-90
2022/11/01 08:33:01;;;;;;;3.80;1.17;;;14.60;99.90;;;;;;5033409;28;20321;-92
2022/11/01 08:35:27;;;;;;;3.03;1.07;;;14.50;99.90;;;;;;5052598;28;20202;-88
2022/11/01 08:37:54;;;;;;;11.07;1.97;;;14.50;99.90;;;;;;5050488;28;20220;-90
2022/11/01 08:40:22;;;;;;;7.30;1.23;;;14.40;99.90;;;;;;5032843;28;20708;-92
2022/11/01 08:42:49;;;;;;;4.43;1.50;;;14.40;99.90;;;;;;5017188;28;20222;-92
2022/11/01 08:45:15;;;;;;;6.23;1.73;;;14.50;99.90;;;;;;5035825;28;20216;-91
2022/11/01 08:47:41;;;;;;;4.13;1.30;;;14.50;99.90;;;;;;5051820;28;20174;-92
2022/11/01 08:50:08;;;;;;;9.40;1.63;;;14.60;99.90;;;;;;5036253;28;20182;-91
2022/11/01 08:52:35;;;;;;;10.83;1.23;;;14.70;99.90;;;;;;5049152;28;20209;-91
2022/11/01 08:55:01;;;;;;;1.60;0.93;;;14.90;99.90;;;;;;5051184;28;20240;-93
2022/11/01 08:57:27;;;;;;;2.77;1.97;;;15.00;99.90;;;;;;5034049;28;20233;-89
2022/11/01 08:59:53;;;;;;;3.17;1.50;;;15.00;99.90;;;;;;5035512;28;20295;-91
2022/11/01 09:02:20;;;;;;;10.33;1.90;;;15.00;99.90;;;;;;5033189;28;20213;-92
2022/11/01 09:04:50;;;;;;;7.93;1.63;;;15.10;99.90;;;;;;5048008;28;20209;-94
2022/11/01 09:07:28;;;;;;;;;;;;;;;;;;;;;
2022/11/01 09:10:17;;;;;;;6.70;1.87;;;15.20;99.90;;;;;;5050722;28;20638;-95
2022/11/01 09:12:43;;;;;;;1.33;0.37;;;15.30;99.90;;;;;;5043781;28;20218;-95
2022/11/01 09:15:21;;;;;;;3.13;1.23;;;15.20;99.90;;;;;;5060928;28;20342;-95
2022/11/01 09:18:36;;;;;;;3.07;0.93;;;15.30;99.90;;;;;;5061027;28;20218;-95
2022/11/01 09:21:23;;;;;;;3.23;0.57;;;15.30;99.90;;;;;;5055895;28;20189;-96
2022/11/01 09:24:28;;;;;;;8.70;1.93;;;15.30;99.90;;;;;;5056106;28;20279;-96
2022/11/01 09:27:43;;;;;;;7.63;2.30;;;15.30;99.90;;;;;;5063484;28;20213;-96
2022/11/01 09:30:20;;;;;;;10.37;1.53;;;15.30;99.90;;;;;;5029494;28;20236;-95
2022/11/01 09:33:28;;;;;;;10.63;1.90;;;15.40;99.90;;;;;;5080617;28;20203;-95
2022/11/01 09:36:01;;;;;;;5.70;1.10;;;15.50;99.90;;;;;;5059898;28;20178;-95
2022/11/01 09:38:39;;;;;;;2.60;1.50;;;15.50;99.90;;;;;;5059590;28;20181;-95
2022/11/01 09:41:47;;;;;;;;;;;;;;;;;;;;;
2022/11/01 09:44:38;;;;;;;10.73;1.70;;;15.40;99.90;;;;;;5058866;28;20224;-93
2022/11/01 09:47:15;;;;;;;1.17;1.07;;;15.50;99.90;;;;;;5049932;28;20196;-91
2022/11/01 09:49:44;;;;;;;7.43;2.27;;;15.70;99.90;;;;;;5047632;28;20221;-89
2022/11/01 09:52:22;;;;;;;4.00;1.27;;;15.60;99.90;;;;;;5050284;28;20213;-90
2022/11/01 09:54:48;;;;;;;6.70;1.40;;;15.40;99.90;;;;;;5051843;28;20260;-94
2022/11/01 09:57:25;;;;;;;0.80;0.80;;;15.40;99.90;;;;;;5051863;28;20300;-93
2022/11/01 10:00:02;;;;;;;3.47;1.97;;;15.20;99.90;;;;;;5052251;28;20221;-93
2022/11/01 10:03:06;;;;;;;3.57;1.37;;;15.20;99.90;;;;;;5052833;28;20213;-92
2022/11/01 10:05:40;;;;;;;2.23;1.00;;;15.20;99.90;;;;;;5006079;28;20590;-92
2022/11/01 10:08:55;;;;;;;8.87;1.90;;;15.30;99.90;;;;;;5034414;28;20197;-93
2022/11/01 10:11:54;;;;;;;4.10;1.87;;;15.30;99.90;;;;;;5004089;28;20352;-92
2022/11/01 10:14:39;;;;;;;0.50;0.50;;;15.50;99.90;;;;;;5024031;28;20245;-93
2022/11/01 10:17:22;;;;;;;6.00;1.87;;;15.40;99.90;;;;;;5031581;28;20225;-92
2022/11/01 10:19:49;;;;;;;4.10;1.37;;;15.30;99.90;;;;;;5003838;28;20301;-93
2022/11/01 10:22:25;;;;;;;4.57;2.67;;;15.40;99.90;;;;;;5037205;28;20749;-94
2022/11/01 10:26:06;;;;;;;2.10;1.23;;;15.50;99.90;;;;;;5009629;28;20222;-91
2022/11/01 10:29:11;;;;;;;3.33;1.43;;;15.60;99.90;;;;;;5009414;28;20668;-94
2022/11/01 10:31:47;;;;;;;8.10;1.40;;;15.80;99.90;;;;;;5055455;28;20308;-94
2022/11/01 10:34:27;;;;;;;1.60;1.27;;;16.00;99.90;;;;;;5055438;28;20233;-93
2022/11/01 10:37:30;;;;;;;5.67;2.37;;;16.00;99.90;;;;;;5055270;28;20210;-94
2022/11/01 10:40:02;;;;;;;1.93;1.37;;;16.00;99.90;;;;;;5069491;28;20323;-93
2022/11/01 10:42:29;;;;;;;3.60;1.50;;;15.80;99.90;;;;;;5057104;28;20289;-93
2022/11/01 10:45:02;;;;;;;3.80;1.37;;;16.00;99.90;;;;;;5050932;28;20201;-93
2022/11/01 10:47:30;;;;;;;3.53;1.10;;;15.90;99.90;;;;;;5049572;28;20217;-95
2022/11/01 10:50:05;;;;;;;5.27;1.47;;;16.00;99.90;;;;;;5013314;28;20202;-93
2022/11/01 10:52:53;;;;;;;4.50;1.50;;;16.00;99.90;;;;;;5044309;28;20220;-92
2022/11/01 10:55:42;;;;;;;5.67;1.03;;;16.00;99.90;;;;;;5050604;28;20716;-91
2022/11/01 10:58:19;;;;;;;5.60;1.10;;;16.00;99.90;;;;;;5038340;28;20240;-93
2022/11/01 11:00:49;;;;;;;4.40;1.57;;;16.00;99.90;;;;;;5055072;28;20218;-94
2022/11/01 11:03:22;;;;;;;3.17;1.77;;;15.90;99.90;;;;;;5047291;28;20286;-93
2022/11/01 11:05:58;;;;;;;4.47;1.33;;;15.90;99.90;;;;;;5065143;28;20653;-93
2022/11/01 11:08:27;;;;;;;3.50;1.40;;;15.90;99.90;;;;;;5056419;28;20178;-95
2022/11/01 11:11:01;;;;;;;4.07;0.90;;;16.10;99.90;;;;;;5053457;28;20218;-93
2022/11/01 11:13:28;;;;;;;8.23;1.97;;;15.70;99.90;;;;;;5059365;28;20222;-95
2022/11/01 11:16:06;;;;;;;2.47;1.40;;;15.50;99.90;;;;;;5045410;28;20246;-95
2022/11/01 11:18:40;;;;;;;2.27;1.27;;;15.70;99.90;;;;;;5051378;28;20578;-95
2022/11/01 11:28:44;;;;;;;8.17;1.37;;;15.80;99.90;;;;;;5046305;28;20295;-93
2022/11/01 11:31:33;;;;;;;7.87;1.60;;;16.00;99.90;;;;;;5010124;28;20230;-95
2022/11/01 11:38:03;;;;;;;2.10;0.80;;;16.60;99.90;;;;;;5019078;28;20226;-95
2022/11/01 11:41:10;;;;;;;5.07;1.57;;;16.30;99.90;;;;;;5055569;28;20256;-95
2022/11/01 11:43:40;;;;;;;7.10;1.13;;;16.10;99.90;;;;;;5050814;23;20266;-85
2022/11/01 11:46:09;;;;;;;6.47;1.57;;;16.00;99.90;;;;;;5001184;28;20226;-84
2022/11/01 11:48:59;;;;;;;3.07;1.27;;;16.00;99.90;;;;;;5024967;28;20226;-85
2022/11/01 11:51:31;;;;;;;7.30;1.37;;;16.10;99.90;;;;;;5024565;28;20587;-85
2022/11/01 11:54:06;;;;;;;7.00;1.37;;;15.90;99.90;;;;;;5021323;28;20230;-87
2022/11/01 11:56:32;;;;;;;2.17;1.00;;;16.00;99.90;;;;;;5021563;28;20948;-86
2022/11/01 11:59:03;;;;;;;2.97;0.50;;;16.00;99.90;;;;;;5010830;28;20199;-86
2022/11/01 12:01:30;;;;;;;6.30;1.80;;;15.90;99.90;;;;;;5025472;28;20218;-86
2022/11/01 12:04:08;;;;;;;0.70;0.60;;;16.00;99.90;;;;;;5037492;28;20261;-84
2022/11/01 12:06:41;;;;;;;2.80;1.23;;;16.00;99.90;;;;;;5015266;28;20218;-84
2022/11/01 12:09:41;;;;;;;8.10;0.97;;;16.10;99.90;;;;;;5026374;28;20265;-84
2022/11/01 12:12:25;;;;;;;5.27;1.37;;;16.20;99.90;;;;;;5016526;28;20346;-83
2022/11/01 12:14:51;;;;;;;6.43;1.17;;;16.30;99.90;;;;;;5018289;28;20293;-83
2022/11/01 12:17:32;;;;;;;2.83;0.97;;;16.30;99.90;;;;;;5017872;28;20197;-84
2022/11/01 12:20:14;;;;;;;4.73;1.20;;;16.40;99.90;;;;;;5027154;28;20206;-84
2022/11/01 12:22:45;;;;;;;3.67;1.03;;;16.60;99.90;;;;;;5005246;28;20672;-84
2022/11/01 12:25:21;;;;;;;5.00;1.47;;;16.70;99.90;;;;;;5023461;28;20219;-85
2022/11/01 12:28:04;;;;;;;7.97;1.60;;;16.70;99.90;;;;;;5018478;28;20328;-87
2022/11/01 12:30:32;;;;;;;1.20;1.03;;;16.80;99.90;;;;;;5014867;28;20226;-84
2022/11/01 12:33:02;;;;;;;2.67;0.70;;;16.70;99.90;;;;;;5019945;28;20207;-85
2022/11/01 12:35:43;;;;;;;3.33;0.73;;;16.50;99.90;;;;;;5018297;28;20234;-84
2022/11/01 12:38:38;;;;;;;11.73;1.43;;;16.40;99.90;;;;;;5020398;28;20214;-86
2022/11/01 12:41:29;;;;;;;3.80;2.30;;;16.40;99.90;;;;;;5021727;28;20207;-86
2022/11/01 12:44:00;;;;;;;1.47;1.10;;;16.50;99.90;;;;;;4989072;28;20243;-84
2022/11/01 12:46:43;;;;;;;4.60;1.57;;;16.70;99.90;;;;;;4985491;28;20233;-82
2022/11/01 12:49:28;;;;;;;0.90;0.57;;;16.50;99.90;;;;;;5001276;28;20758;-82
2022/11/01 12:51:59;;;;;;;5.87;1.03;;;16.50;99.90;;;;;;4987908;28;20640;-84
2022/11/01 12:54:32;;;;;;;1.93;0.97;;;16.50;99.90;;;;;;4988965;28;20235;-84
2022/11/01 12:56:58;;;;;;;4.90;1.03;;;16.40;99.90;;;;;;4988251;28;20211;-84
2022/11/01 12:59:32;;;;;;;4.30;1.00;;;16.40;99.90;;;;;;4989499;28;20194;-83
2022/11/01 13:02:37;;;;;;;4.17;1.47;;;16.50;99.90;;;;;;4989154;28;20212;-85
2022/11/01 13:05:18;;;;;;;4.00;1.00;;;16.60;99.90;;;;;;5006052;28;20223;-84
2022/11/01 13:08:13;;;;;;;9.60;0.87;;;16.60;99.90;;;;;;5005801;28;20215;-83
2022/11/01 13:10:45;;;;;;;1.70;0.93;;;16.60;99.90;;;;;;5005776;28;20231;-83
2022/11/01 13:13:30;;;;;;;4.73;1.33;;;16.70;99.90;;;;;;4988661;28;20238;-81
2022/11/01 13:16:15;;;;;;;0.73;0.70;;;16.80;99.90;;;;;;4987807;28;20641;-85
2022/11/01 13:19:03;;;;;;;3.90;0.93;;;16.70;99.90;;;;;;5006773;28;20215;-83
2022/11/01 13:21:33;;;;;;;3.53;1.40;;;16.60;99.90;;;;;;4998885;28;20262;-83
2022/11/01 13:24:23;;;;;;;0.50;0.47;;;16.60;99.90;;;;;;4989624;28;20234;-88
2022/11/01 13:27:15;;;;;;;1.43;0.80;;;16.60;99.90;;;;;;5007558;28;20572;-86
2022/11/01 13:29:43;;;;;;;0.97;0.80;;;16.60;99.90;;;;;;5005719;28;20186;-87
2022/11/01 13:32:28;;;;;;;1.70;0.50;;;16.70;99.90;;;;;;4988907;28;20755;-85
2022/11/01 13:35:23;;;;;;;1.80;1.20;;;16.70;99.90;;;;;;5006204;28;20226;-85